createdAt,value
2016-10-27T00:00:25.075Z,0
2016-10-27T00:01:36.522Z,0
2016-10-27T00:02:48.597Z,0
2016-10-27T00:04:01.093Z,0
2016-10-27T00:05:13.529Z,12
2016-10-27T00:06:26.566Z,12
2016-10-27T00:07:39.567Z,12
2016-10-27T00:08:52.562Z,12
2016-10-27T00:10:06.087Z,0
2016-10-27T00:11:18.152Z,0
2016-10-27T00:12:30.614Z,0
2016-10-27T00:13:42.719Z,0
2016-10-27T00:14:54.679Z,0
2016-10-27T00:16:07.239Z,0
2016-10-27T00:17:19.237Z,0
2016-10-27T00:18:31.669Z,0
2016-10-27T00:19:44.673Z,0
2016-10-27T00:20:58.211Z,0
2016-10-27T00:22:10.710Z,0
2016-10-27T00:23:23.768Z,0
2016-10-27T00:24:36.327Z,0
2016-10-27T00:25:48.285Z,0
2016-10-27T00:27:01.261Z,0
2016-10-27T00:28:13.743Z,0
2016-10-27T00:29:26.204Z,0
2016-10-27T00:30:39.441Z,0
2016-10-27T00:31:51.467Z,0
2016-10-27T00:33:05.024Z,0
2016-10-27T00:34:18.569Z,0
2016-10-27T00:35:31.173Z,0
2016-10-27T00:36:43.724Z,0
2016-10-27T00:37:56.185Z,0
2016-10-27T00:39:09.191Z,0
2016-10-27T00:40:22.160Z,0
2016-10-27T00:41:34.772Z,0
2016-10-27T00:42:47.735Z,0
2016-10-27T00:44:00.214Z,0
2016-10-27T00:45:13.837Z,0
2016-10-27T00:46:27.519Z,0
2016-10-27T00:47:40.464Z,0
2016-10-27T00:48:54.145Z,0
2016-10-27T00:50:06.168Z,0
2016-10-27T00:51:18.703Z,0
2016-10-27T00:52:31.178Z,0
2016-10-27T00:53:43.634Z,0
2016-10-27T00:54:55.529Z,0
2016-10-27T00:56:08.557Z,0
2016-10-27T00:57:21.222Z,0
2016-10-27T00:58:34.231Z,0
2016-10-27T00:59:46.155Z,0
2016-10-27T01:00:58.621Z,0
2016-10-27T01:02:10.059Z,0
2016-10-27T01:03:22.527Z,0
2016-10-27T01:04:35.575Z,0
2016-10-27T01:05:47.543Z,0
2016-10-27T01:07:00.034Z,0
2016-10-27T01:08:12.599Z,0
2016-10-27T01:09:24.544Z,0
2016-10-27T01:10:37.572Z,0
2016-10-27T01:11:50.534Z,0
2016-10-27T01:13:02.437Z,0
2016-10-27T01:14:14.986Z,0
2016-10-27T01:15:26.397Z,0
2016-10-27T01:16:38.800Z,0
2016-10-27T01:17:51.857Z,0
2016-10-27T01:19:04.467Z,0
2016-10-27T01:20:16.930Z,0
2016-10-27T01:21:29.439Z,0
2016-10-27T01:22:41.449Z,0
2016-10-27T01:23:54.476Z,0
2016-10-27T01:25:07.091Z,0
2016-10-27T01:26:20.164Z,0
2016-10-27T01:27:33.156Z,0
2016-10-27T01:28:45.647Z,0
2016-10-27T01:29:58.216Z,0
2016-10-27T01:31:11.257Z,0
2016-10-27T01:32:23.769Z,0
2016-10-27T01:33:35.193Z,0
2016-10-27T01:34:48.165Z,0
2016-10-27T01:36:00.739Z,0
2016-10-27T01:37:12.725Z,0
2016-10-27T01:38:25.234Z,0
2016-10-27T01:39:37.736Z,0
2016-10-27T01:40:51.415Z,0
2016-10-27T01:42:03.407Z,0
2016-10-27T01:43:16.994Z,0
2016-10-27T01:44:29.462Z,0
2016-10-27T01:45:43.133Z,0
2016-10-27T01:46:55.141Z,0
2016-10-27T01:48:07.672Z,0
2016-10-27T01:49:21.232Z,0
2016-10-27T01:50:33.127Z,0
2016-10-27T01:51:46.796Z,0
2016-10-27T01:52:59.870Z,0
2016-10-27T01:54:11.794Z,0
2016-10-27T01:55:24.791Z,0
2016-10-27T01:56:38.350Z,0
2016-10-27T01:57:50.801Z,0
2016-10-27T01:59:02.748Z,0
2016-10-27T02:00:15.250Z,0
2016-10-27T02:01:27.163Z,0
2016-10-27T02:02:40.400Z,0
2016-10-27T02:03:52.863Z,0
2016-10-27T02:05:05.333Z,0
2016-10-27T02:06:17.777Z,0
2016-10-27T02:07:31.403Z,0
2016-10-27T02:08:45.269Z,0
2016-10-27T02:09:58.248Z,0
2016-10-27T02:11:11.262Z,0
2016-10-27T02:12:23.760Z,0
2016-10-27T02:13:35.879Z,0
2016-10-27T02:14:49.371Z,0
2016-10-27T02:16:02.355Z,0
2016-10-27T02:17:14.808Z,0
2016-10-27T02:18:28.344Z,0
2016-10-27T02:19:41.334Z,0
2016-10-27T02:20:53.860Z,0
2016-10-27T02:22:05.834Z,0
2016-10-27T02:23:18.957Z,0
2016-10-27T02:24:32.696Z,0
2016-10-27T02:25:45.690Z,0
2016-10-27T02:26:58.157Z,0
2016-10-27T02:28:10.100Z,0
2016-10-27T02:29:22.078Z,0
2016-10-27T02:30:34.758Z,0
2016-10-27T02:31:47.771Z,0
2016-10-27T02:33:00.757Z,0
2016-10-27T02:34:13.259Z,0
2016-10-27T02:35:25.362Z,0
2016-10-27T02:36:37.837Z,0
2016-10-27T02:37:50.326Z,0
2016-10-27T02:39:02.783Z,0
2016-10-27T02:40:15.263Z,0
2016-10-27T02:41:26.784Z,0
2016-10-27T02:42:40.332Z,0
2016-10-27T02:43:53.260Z,0
2016-10-27T02:45:05.715Z,0
2016-10-27T02:46:19.372Z,0
2016-10-27T02:47:30.786Z,0
2016-10-27T02:48:43.746Z,0
2016-10-27T02:49:57.255Z,0
2016-10-27T02:51:09.803Z,0
2016-10-27T02:52:22.854Z,0
2016-10-27T02:53:35.288Z,0
2016-10-27T02:54:47.821Z,0
2016-10-27T02:55:59.789Z,0
2016-10-27T02:57:11.927Z,0
2016-10-27T02:58:25.511Z,0
2016-10-27T02:59:37.967Z,0
2016-10-27T03:00:51.050Z,0
2016-10-27T03:02:04.064Z,0
2016-10-27T03:03:16.049Z,0
2016-10-27T03:04:29.077Z,0
2016-10-27T03:05:41.038Z,0
2016-10-27T03:06:54.000Z,0
2016-10-27T03:08:06.674Z,0
2016-10-27T03:09:20.229Z,0
2016-10-27T03:10:32.734Z,0
2016-10-27T03:11:45.190Z,0
2016-10-27T03:12:58.311Z,0
2016-10-27T03:14:12.040Z,0
2016-10-27T03:15:25.020Z,0
2016-10-27T03:16:38.515Z,0
2016-10-27T03:17:51.512Z,0
2016-10-27T03:19:03.591Z,0
2016-10-27T03:20:15.540Z,0
2016-10-27T03:21:28.516Z,0
2016-10-27T03:22:39.981Z,0
2016-10-27T03:23:51.878Z,0
2016-10-27T03:25:04.861Z,0
2016-10-27T03:26:17.371Z,0
2016-10-27T03:27:30.940Z,0
2016-10-27T03:28:43.461Z,0
2016-10-27T03:29:55.478Z,0
2016-10-27T03:31:07.416Z,0
2016-10-27T03:32:20.975Z,0
2016-10-27T03:33:34.506Z,0
2016-10-27T03:34:47.003Z,0
2016-10-27T03:35:59.968Z,0
2016-10-27T03:37:12.520Z,0
2016-10-27T03:38:24.499Z,0
2016-10-27T03:39:37.520Z,0
2016-10-27T03:40:49.575Z,0
2016-10-27T03:42:03.078Z,0
2016-10-27T03:43:16.052Z,0
2016-10-27T03:44:29.514Z,0
2016-10-27T03:45:41.985Z,0
2016-10-27T03:46:55.031Z,0
2016-10-27T03:48:08.610Z,0
2016-10-27T03:49:21.087Z,0
2016-10-27T03:50:33.531Z,0
2016-10-27T03:51:47.144Z,0
2016-10-27T03:53:00.093Z,0
2016-10-27T03:54:13.710Z,0
2016-10-27T03:55:26.126Z,0
2016-10-27T03:56:38.071Z,0
2016-10-27T03:57:51.538Z,0
2016-10-27T03:59:05.135Z,0
2016-10-27T04:00:18.662Z,0
2016-10-27T04:01:31.605Z,0
2016-10-27T04:02:45.223Z,0
2016-10-27T04:03:58.210Z,0
2016-10-27T04:05:10.168Z,0
2016-10-27T04:06:21.574Z,0
2016-10-27T04:07:34.583Z,0
2016-10-27T04:08:47.525Z,0
2016-10-27T04:10:00.021Z,0
2016-10-27T04:11:11.927Z,0
2016-10-27T04:12:24.469Z,0
2016-10-27T04:13:37.095Z,0
2016-10-27T04:14:49.601Z,0
2016-10-27T04:16:00.963Z,0
2016-10-27T04:17:13.429Z,0
2016-10-27T04:18:25.320Z,0
2016-10-27T04:19:37.852Z,0
2016-10-27T04:20:50.864Z,0
2016-10-27T04:22:03.853Z,0
2016-10-27T04:23:16.831Z,0
2016-10-27T04:24:28.940Z,0
2016-10-27T04:25:42.016Z,0
2016-10-27T04:26:55.569Z,0
2016-10-27T04:28:08.004Z,0
2016-10-27T04:29:21.566Z,0
2016-10-27T04:30:34.581Z,0
2016-10-27T04:31:47.577Z,0
2016-10-27T04:33:00.045Z,0
2016-10-27T04:34:12.063Z,0
2016-10-27T04:35:24.204Z,0
2016-10-27T04:36:37.186Z,0
2016-10-27T04:37:49.671Z,0
2016-10-27T04:39:02.184Z,0
2016-10-27T04:40:14.144Z,0
2016-10-27T04:41:26.211Z,0
2016-10-27T04:42:38.725Z,0
2016-10-27T04:43:50.085Z,0
2016-10-27T04:45:03.640Z,0
2016-10-27T04:46:16.750Z,0
2016-10-27T04:47:29.303Z,0
2016-10-27T04:48:41.266Z,0
2016-10-27T04:49:54.288Z,0
2016-10-27T04:51:06.719Z,0
2016-10-27T04:52:19.232Z,0
2016-10-27T04:53:31.213Z,0
2016-10-27T04:54:43.163Z,0
2016-10-27T04:55:55.128Z,0
2016-10-27T04:57:07.791Z,0
2016-10-27T04:58:21.304Z,0
2016-10-27T04:59:33.759Z,0
2016-10-27T05:00:46.209Z,0
2016-10-27T05:01:59.179Z,0
2016-10-27T05:03:11.251Z,0
2016-10-27T05:04:24.188Z,0
2016-10-27T05:05:36.128Z,0
2016-10-27T05:06:48.545Z,0
2016-10-27T05:08:01.195Z,0
2016-10-27T05:09:14.704Z,0
2016-10-27T05:10:27.692Z,0
2016-10-27T05:11:40.730Z,0
2016-10-27T05:12:54.424Z,0
2016-10-27T05:14:07.447Z,0
2016-10-27T05:15:20.460Z,0
2016-10-27T05:16:32.917Z,0
2016-10-27T05:17:45.351Z,0
2016-10-27T05:18:58.535Z,0
2016-10-27T05:20:10.024Z,0
2016-10-27T05:21:23.043Z,0
2016-10-27T05:22:36.036Z,0
2016-10-27T05:23:47.474Z,0
2016-10-27T05:25:00.134Z,0
2016-10-27T05:26:12.598Z,0
2016-10-27T05:27:25.634Z,0
2016-10-27T05:28:37.566Z,0
2016-10-27T05:29:51.206Z,0
2016-10-27T05:31:03.655Z,0
2016-10-27T05:32:15.637Z,0
2016-10-27T05:33:28.723Z,0
2016-10-27T05:34:41.191Z,0
2016-10-27T05:35:54.155Z,0
2016-10-27T05:37:07.664Z,0
2016-10-27T05:38:19.648Z,0
2016-10-27T05:39:31.587Z,0
2016-10-27T05:40:44.731Z,0
2016-10-27T05:41:58.247Z,0
2016-10-27T05:43:11.310Z,0
2016-10-27T05:44:24.295Z,0
2016-10-27T05:45:36.312Z,0
2016-10-27T05:46:49.852Z,0
2016-10-27T05:48:02.879Z,0
2016-10-27T05:49:16.473Z,0
2016-10-27T05:50:30.137Z,0
2016-10-27T05:51:43.282Z,0
2016-10-27T05:52:56.823Z,0
2016-10-27T05:54:09.838Z,0
2016-10-27T05:55:22.855Z,0
2016-10-27T05:56:36.474Z,0
2016-10-27T05:57:49.049Z,0
2016-10-27T05:59:00.976Z,0
2016-10-27T06:00:13.991Z,0
2016-10-27T06:01:26.501Z,0
2016-10-27T06:02:39.680Z,0
2016-10-27T06:03:52.726Z,0
2016-10-27T06:05:05.669Z,0
2016-10-27T06:06:16.615Z,0
2016-10-27T06:07:29.109Z,0
2016-10-27T06:08:41.734Z,0
2016-10-27T06:09:55.522Z,0
2016-10-27T06:11:07.959Z,0
2016-10-27T06:12:19.890Z,0
2016-10-27T06:13:33.004Z,0
2016-10-27T06:14:46.048Z,0
2016-10-27T06:15:59.091Z,0
2016-10-27T06:17:11.538Z,0
2016-10-27T06:18:25.029Z,0
2016-10-27T06:19:38.558Z,0
2016-10-27T06:20:51.028Z,0
2016-10-27T06:22:03.482Z,0
2016-10-27T06:23:16.534Z,0
2016-10-27T06:24:30.185Z,0
2016-10-27T06:25:42.670Z,0
2016-10-27T06:26:55.223Z,0
2016-10-27T06:28:08.175Z,0
2016-10-27T06:29:20.095Z,0
2016-10-27T06:30:33.158Z,0
2016-10-27T06:31:46.183Z,0
2016-10-27T06:32:59.224Z,0
2016-10-27T06:34:11.184Z,0
2016-10-27T06:35:23.743Z,0
2016-10-27T06:36:35.649Z,0
2016-10-27T06:37:48.667Z,0
2016-10-27T06:39:01.705Z,0
2016-10-27T06:40:14.735Z,0
2016-10-27T06:41:26.652Z,0
2016-10-27T06:42:39.640Z,0
2016-10-27T06:43:52.163Z,0
2016-10-27T06:45:04.147Z,0
2016-10-27T06:46:16.804Z,0
2016-10-27T06:47:28.759Z,0
2016-10-27T06:48:41.445Z,0
2016-10-27T06:49:53.489Z,0
2016-10-27T06:51:05.986Z,0
2016-10-27T06:52:18.923Z,0
2016-10-27T06:53:31.428Z,0
2016-10-27T06:54:44.476Z,0
2016-10-27T06:55:56.916Z,0
2016-10-27T06:57:08.402Z,0
2016-10-27T06:58:20.862Z,0
2016-10-27T06:59:33.879Z,0
2016-10-27T07:00:45.821Z,0
2016-10-27T07:01:57.255Z,0
2016-10-27T07:03:09.869Z,0
2016-10-27T07:04:23.173Z,0
2016-10-27T07:05:36.180Z,0
2016-10-27T07:06:49.756Z,0
2016-10-27T07:08:02.367Z,0
2016-10-27T07:09:15.391Z,0
2016-10-27T07:10:28.389Z,0
2016-10-27T07:11:41.965Z,0
2016-10-27T07:12:55.481Z,0
2016-10-27T07:14:08.091Z,0
2016-10-27T07:15:20.549Z,0
2016-10-27T07:16:32.137Z,0
2016-10-27T07:17:45.078Z,0
2016-10-27T07:18:58.063Z,0
2016-10-27T07:20:10.733Z,0
2016-10-27T07:21:22.654Z,0
2016-10-27T07:22:35.120Z,0
2016-10-27T07:23:48.311Z,0
2016-10-27T07:25:00.955Z,0
2016-10-27T07:26:13.355Z,0
2016-10-27T07:27:25.276Z,0
2016-10-27T07:28:37.779Z,0
2016-10-27T07:29:50.238Z,0
2016-10-27T07:31:03.245Z,0
2016-10-27T07:32:16.278Z,0
2016-10-27T07:33:29.312Z,0
2016-10-27T07:34:40.776Z,0
2016-10-27T07:35:53.836Z,0
2016-10-27T07:37:06.771Z,0
2016-10-27T07:38:19.265Z,0
2016-10-27T07:39:32.258Z,0
2016-10-27T07:40:44.694Z,0
2016-10-27T07:41:57.172Z,0
2016-10-27T07:43:10.691Z,0
2016-10-27T07:44:24.183Z,0
2016-10-27T07:45:37.162Z,0
2016-10-27T07:46:49.197Z,0
2016-10-27T07:48:01.683Z,0
2016-10-27T07:49:13.104Z,0
2016-10-27T07:50:24.534Z,0
2016-10-27T07:51:37.599Z,0
2016-10-27T07:52:51.047Z,0
2016-10-27T07:54:04.010Z,0
2016-10-27T07:55:16.995Z,0
2016-10-27T07:56:28.950Z,0
2016-10-27T07:57:42.579Z,0
2016-10-27T07:58:55.095Z,0
2016-10-27T08:00:06.501Z,0
2016-10-27T08:01:19.449Z,0
2016-10-27T08:02:32.472Z,4
2016-10-27T08:03:45.061Z,4
2016-10-27T08:04:57.514Z,4
2016-10-27T08:06:09.992Z,4
2016-10-27T08:07:23.070Z,4
2016-10-27T08:08:35.609Z,4
2016-10-27T08:09:48.045Z,8
2016-10-27T08:11:00.541Z,12
2016-10-27T08:12:13.075Z,16
2016-10-27T08:13:25.522Z,20
2016-10-27T08:14:37.051Z,28
2016-10-27T08:15:49.544Z,32
2016-10-27T08:17:02.578Z,48
2016-10-27T08:18:15.740Z,64
2016-10-27T08:19:28.339Z,80
2016-10-27T08:20:40.326Z,100
2016-10-27T08:21:53.888Z,120
2016-10-27T08:23:05.819Z,140
2016-10-27T08:24:18.322Z,164
2016-10-27T08:25:31.478Z,188
2016-10-27T08:26:44.041Z,216
2016-10-27T08:27:56.056Z,244
2016-10-27T08:29:09.078Z,268
2016-10-27T08:30:21.718Z,304
2016-10-27T08:31:34.691Z,336
2016-10-27T08:32:47.704Z,380
2016-10-27T08:33:59.674Z,424
2016-10-27T08:35:12.141Z,480
2016-10-27T08:36:24.177Z,536
2016-10-27T08:37:37.184Z,572
2016-10-27T08:38:50.178Z,608
2016-10-27T08:40:03.229Z,628
2016-10-27T08:41:15.810Z,656
2016-10-27T08:42:28.278Z,680
2016-10-27T08:43:41.731Z,712
2016-10-27T08:44:54.195Z,740
2016-10-27T08:46:07.928Z,764
2016-10-27T08:47:20.924Z,788
2016-10-27T08:48:34.426Z,820
2016-10-27T08:49:46.887Z,848
2016-10-27T08:50:59.962Z,888
2016-10-27T08:52:13.001Z,928
2016-10-27T08:53:25.968Z,972
2016-10-27T08:54:38.030Z,996
2016-10-27T08:55:51.058Z,1032
2016-10-27T08:57:03.554Z,1080
2016-10-27T08:58:16.639Z,1120
2016-10-27T08:59:29.142Z,1164
2016-10-27T09:00:40.621Z,1196
2016-10-27T09:01:54.806Z,1228
2016-10-27T09:03:08.816Z,1292
2016-10-27T09:04:21.826Z,1356
2016-10-27T09:05:34.891Z,1408
2016-10-27T09:06:48.666Z,1472
2016-10-27T09:08:00.107Z,1488
2016-10-27T09:09:12.826Z,1484
2016-10-27T09:10:26.331Z,1488
2016-10-27T09:11:39.032Z,1484
2016-10-27T09:12:51.693Z,1476
2016-10-27T09:14:04.796Z,1468
2016-10-27T09:15:17.742Z,1464
2016-10-27T09:16:30.512Z,1488
2016-10-27T09:17:42.560Z,684
2016-10-27T09:18:55.234Z,680
2016-10-27T09:20:07.446Z,904
2016-10-27T09:21:19.946Z,704
2016-10-27T09:22:33.336Z,728
2016-10-27T09:23:45.067Z,748
2016-10-27T09:24:58.018Z,756
2016-10-27T09:26:11.010Z,776
2016-10-27T09:27:23.263Z,808
2016-10-27T09:28:36.375Z,804
2016-10-27T09:29:50.023Z,848
2016-10-27T09:31:03.055Z,832
2016-10-27T09:32:16.261Z,848
2016-10-27T09:33:29.450Z,832
2016-10-27T09:34:41.915Z,840
2016-10-27T09:35:53.470Z,856
2016-10-27T09:37:05.990Z,820
2016-10-27T09:38:18.692Z,840
2016-10-27T09:39:31.751Z,1056
2016-10-27T09:40:44.719Z,988
2016-10-27T09:42:29.055Z,2576
2016-10-27T09:43:42.037Z,2708
2016-10-27T09:44:54.597Z,2828
2016-10-27T09:46:08.302Z,2920
2016-10-27T09:47:20.690Z,2972
2016-10-27T09:48:33.767Z,3056
2016-10-27T09:49:46.784Z,1300
2016-10-27T09:50:59.391Z,1024
2016-10-27T09:52:12.455Z,1032
2016-10-27T09:53:25.941Z,1008
2016-10-27T09:54:38.924Z,968
2016-10-27T09:55:50.879Z,972
2016-10-27T09:57:04.128Z,992
2016-10-27T09:58:18.990Z,1000
2016-10-27T09:59:31.539Z,4168
2016-10-27T10:00:43.787Z,4316
2016-10-27T10:01:56.108Z,4468
2016-10-27T10:03:13.547Z,4552
2016-10-27T10:04:31.285Z,4532
2016-10-27T10:05:46.796Z,1128
2016-10-27T10:07:00.456Z,4684
2016-10-27T10:08:12.402Z,4720
2016-10-27T10:09:25.959Z,4740
2016-10-27T10:10:38.947Z,4800
2016-10-27T10:11:50.535Z,4856
2016-10-27T10:13:03.631Z,4820
2016-10-27T10:14:16.807Z,4800
2016-10-27T10:15:29.270Z,4804
2016-10-27T10:16:42.299Z,4888
2016-10-27T10:17:55.817Z,4952
2016-10-27T10:19:08.764Z,5040
2016-10-27T10:20:21.149Z,5112
2016-10-27T10:21:34.162Z,5264
2016-10-27T10:22:46.600Z,5496
2016-10-27T10:23:59.238Z,5744
2016-10-27T10:25:12.326Z,5928
2016-10-27T10:26:25.969Z,5996
2016-10-27T10:27:38.943Z,6044
2016-10-27T10:28:50.990Z,6196
2016-10-27T10:30:05.067Z,6452
2016-10-27T10:31:19.829Z,6660
2016-10-27T10:32:32.470Z,6856
2016-10-27T10:33:44.974Z,6984
2016-10-27T10:34:57.026Z,7156
2016-10-27T10:36:09.497Z,7292
2016-10-27T10:37:21.435Z,6764
2016-10-27T10:38:35.023Z,1576
2016-10-27T10:39:48.061Z,1560
2016-10-27T10:41:01.093Z,1540
2016-10-27T10:42:13.590Z,1576
2016-10-27T10:43:25.528Z,1600
2016-10-27T10:44:37.520Z,1620
2016-10-27T10:45:49.642Z,1664
2016-10-27T10:47:03.196Z,1664
2016-10-27T10:48:16.332Z,1644
2016-10-27T10:49:29.801Z,1664
2016-10-27T10:50:43.628Z,6252
2016-10-27T10:51:56.594Z,6436
2016-10-27T10:53:09.682Z,5728
2016-10-27T10:54:22.238Z,6280
2016-10-27T10:55:36.293Z,2208
2016-10-27T10:56:50.069Z,7580
2016-10-27T10:58:03.083Z,8012
2016-10-27T10:59:15.918Z,2556
2016-10-27T11:00:29.994Z,2672
2016-10-27T11:01:46.564Z,2516
2016-10-27T11:02:59.765Z,2640
2016-10-27T11:04:13.420Z,2580
2016-10-27T11:05:26.126Z,2400
2016-10-27T11:06:39.263Z,2304
2016-10-27T11:07:52.759Z,2276
2016-10-27T11:09:06.562Z,2780
2016-10-27T11:10:19.622Z,2180
2016-10-27T11:11:32.778Z,2180
2016-10-27T11:12:45.982Z,9020
2016-10-27T11:13:59.267Z,8960
2016-10-27T11:15:12.260Z,9048
2016-10-27T11:16:25.897Z,2556
2016-10-27T11:17:39.559Z,2592
2016-10-27T11:18:52.117Z,9636
2016-10-27T11:20:05.174Z,9856
2016-10-27T11:21:18.224Z,9648
2016-10-27T11:22:30.804Z,9660
2016-10-27T11:23:43.942Z,2372
2016-10-27T11:24:56.587Z,2348
2016-10-27T11:26:09.022Z,2316
2016-10-27T11:27:22.031Z,2232
2016-10-27T11:28:34.504Z,2200
2016-10-27T11:29:47.582Z,9040
2016-10-27T11:31:01.259Z,9012
2016-10-27T11:32:14.399Z,8864
2016-10-27T11:33:26.855Z,9100
2016-10-27T11:34:40.031Z,2404
2016-10-27T11:35:52.518Z,2356
2016-10-27T11:37:05.102Z,2164
2016-10-27T11:38:16.526Z,2336
2016-10-27T11:39:28.525Z,2548
2016-10-27T11:40:41.680Z,2716
2016-10-27T11:41:54.173Z,2744
2016-10-27T11:43:07.210Z,2880
2016-10-27T11:44:18.681Z,2884
2016-10-27T11:45:30.816Z,3232
2016-10-27T11:46:43.497Z,3160
2016-10-27T11:47:56.533Z,3436
2016-10-27T11:49:09.141Z,3708
2016-10-27T11:50:22.495Z,3452
2016-10-27T11:51:35.530Z,2984
2016-10-27T11:52:48.648Z,3336
2016-10-27T11:54:32.259Z,12596
2016-10-27T11:55:44.810Z,13440
2016-10-27T11:56:58.097Z,14188
2016-10-27T11:58:10.063Z,15980
2016-10-27T11:59:22.084Z,16228
2016-10-27T12:00:34.664Z,17824
2016-10-27T12:01:47.834Z,17280
2016-10-27T12:03:01.345Z,18464
2016-10-27T12:04:12.924Z,20160
2016-10-27T12:05:25.456Z,20736
2016-10-27T12:06:38.547Z,19840
2016-10-27T12:07:50.686Z,20832
2016-10-27T12:09:03.560Z,19744
2016-10-27T12:10:15.532Z,17216
2016-10-27T12:11:27.981Z,16612
2016-10-27T12:12:40.607Z,16360
2016-10-27T12:13:52.601Z,18912
2016-10-27T12:15:05.167Z,19264
2016-10-27T12:16:17.738Z,23872
2016-10-27T12:17:29.881Z,21888
2016-10-27T12:18:42.488Z,15568
2016-10-27T12:19:54.550Z,15248
2016-10-27T12:21:07.560Z,15996
2016-10-27T12:22:20.806Z,15072
2016-10-27T12:23:33.815Z,13212
2016-10-27T12:24:46.709Z,14048
2016-10-27T12:25:58.826Z,18880
2016-10-27T12:27:12.450Z,18912
2016-10-27T12:28:25.678Z,5880
2016-10-27T12:29:38.902Z,22400
2016-10-27T12:30:50.382Z,6928
2016-10-27T12:32:02.046Z,22528
2016-10-27T12:33:14.089Z,20480
2016-10-27T12:34:25.619Z,20672
2016-10-27T12:35:38.843Z,19104
2016-10-27T12:36:51.828Z,17152
2016-10-27T12:38:04.434Z,15780
2016-10-27T12:39:17.489Z,15232
2016-10-27T12:40:29.548Z,15156
2016-10-27T12:41:42.025Z,16176
2016-10-27T12:42:54.682Z,18720
2016-10-27T12:44:07.240Z,22240
2016-10-27T12:45:21.196Z,14032
